Time;durP1;ratioP1;P1;durP2;ratioP2;P2;SDS_P1;SDS_P2;PMS_P1;PMS_P2;Temp;Humidity;BMP_temperature;BMP_pressure;BME280_temperature;BME280_humidity;BME280_pressure;Samples;Min_cycle;Max_cycle;Signal;HPM_P1;HPM_P2
2023/05/06 00:00:56;;;;;;;;;;;;;;;11.74;87.66;101557.81;4930135;29;19942;-81
2023/05/06 00:03:21;;;;;;;;;;;;;;;11.69;87.86;101559.66;4940128;29;19929;-82
2023/05/06 00:05:48;;;;;;;;;;;;;;;11.65;87.32;101561.50;4919207;29;19903;-81
2023/05/06 00:08:13;;;;;;;;;;;;;;;11.63;87.32;101563.28;4918843;29;19976;-81
2023/05/06 00:10:38;;;;;;;;;;;;;;;11.59;88.02;101557.13;4918715;29;19915;-81
2023/05/06 00:13:04;;;;;;;;;;;;;;;11.56;87.59;101549.22;4933557;29;20061;-81
2023/05/06 00:15:29;;;;;;;;;;;;;;;11.55;89.40;101550.13;4905040;29;19930;-81
2023/05/06 00:17:54;;;;;;;;;;;;;;;11.52;88.70;101550.19;4917261;29;19958;-81
2023/05/06 00:20:20;;;;;;;;;;;;;;;11.50;89.73;101544.03;4897911;29;19918;-81
2023/05/06 00:22:45;;;;;;;;;;;;;;;11.47;88.44;101548.47;4910126;29;19915;-81
2023/05/06 00:25:11;;;;;;;;;;;;;;;11.44;89.91;101549.38;4913402;29;20336;-81
2023/05/06 00:27:36;;;;;;;;;;;;;;;11.41;89.25;101546.78;4916817;29;20373;-81
2023/05/06 00:30:02;;;;;;;;;;;;;;;11.40;89.68;101545.91;4932554;29;20009;-81
2023/05/06 00:32:27;;;;;;;;;;;;;;;11.39;90.51;101549.44;4903998;29;19915;-82
2023/05/06 00:34:52;;;;;;;;;;;;;;;11.36;89.48;101544.19;4909629;29;20288;-80
2023/05/06 00:37:18;;;;;;;;;;;;;;;11.32;89.67;101542.47;4926440;29;19926;-81
2023/05/06 00:39:43;;;;;;;;;;;;;;;11.29;90.30;101539.00;4932575;28;19926;-81
2023/05/06 00:42:09;;;;;;;;;;;;;;;11.27;89.71;101540.78;4901094;29;19921;-82
2023/05/06 00:44:35;;;;;;;;;;;;;;;11.23;89.92;101541.75;4904517;29;20010;-81
2023/05/06 00:47:00;;;;;;;;;;;;;;;11.21;89.40;101547.06;4932568;29;19931;-81
2023/05/06 00:49:26;;;;;;;;;;;;;;;11.16;89.82;101544.47;4914929;29;19911;-81
2023/05/06 00:51:52;;;;;;;;;;;;;;;11.11;93.53;101546.31;4924745;29;19963;-81
2023/05/06 00:54:18;;;;;;;;;;;;;;;11.06;90.86;101541.97;4917957;29;19918;-81
2023/05/06 00:56:44;;;;;;;;;;;;;;;11.06;90.18;101539.31;4933500;28;19923;-81
2023/05/06 00:59:09;;;;;;;;;;;;;;;11.05;91.13;101542.84;4932756;28;19915;-80
2023/05/06 01:01:36;;;;;;;;;;;;;;;11.02;90.08;101535.81;4918736;29;19914;-81
2023/05/06 01:04:01;;;;;;;;;;;;;;;11.00;89.77;101531.44;4905809;29;20286;-81
2023/05/06 01:06:46;;;;;;;;;;;;;;;10.94;89.14;101538.56;4916522;29;19919;-81
2023/05/06 01:09:28;;;;;;;;;;;;;;;10.92;89.85;101529.75;4932339;29;19927;-81
2023/05/06 01:11:58;;;;;;;;;;;;;;;10.87;89.38;101538.66;4924341;29;19997;-81
2023/05/06 01:14:42;;;;;;;;;;;;;;;10.82;89.45;101536.06;4926325;29;19930;-81
2023/05/06 01:17:09;;;;;;;;;;;;;;;10.77;89.64;101528.16;4923009;29;19987;-81
2023/05/06 01:19:40;;;;;;;;;;;;;;;10.73;88.90;101528.22;4910995;29;19918;-81
2023/05/06 01:22:07;;;;;;;;;;;;;;;10.68;89.03;101535.34;4910110;29;20109;-81
2023/05/06 01:24:50;;;;;;;;;;;;;;;10.63;89.99;101534.50;4912549;29;19926;-81
2023/05/06 01:27:17;;;;;;;;;;;;;;;10.59;91.21;101522.22;4919061;29;19924;-81
2023/05/06 01:29:44;;;;;;;;;;;;;;;10.55;91.41;101524.00;4891407;29;19930;-81
2023/05/06 01:32:15;;;;;;;;;;;;;;;10.52;90.82;101524.03;4906418;29;19962;-81
2023/05/06 01:34:45;;;;;;;;;;;;;;;10.49;90.35;101521.44;4905709;29;19919;-81
2023/05/06 01:37:20;;;;;;;;;;;;;;;10.47;91.17;101528.50;4914363;29;19926;-81
2023/05/06 01:39:47;;;;;;;;;;;;;;;10.45;92.13;101525.00;4930755;29;19922;-81
2023/05/06 01:42:12;;;;;;;;;;;;;;;10.43;91.49;101526.78;4905755;29;19923;-81
2023/05/06 01:44:38;;;;;;;;;;;;;;;10.41;91.92;101525.91;4914272;29;19918;-81
2023/05/06 01:47:04;;;;;;;;;;;;;;;10.40;91.61;101524.16;4931980;29;19925;-81
2023/05/06 01:49:30;;;;;;;;;;;;;;;10.37;91.26;101525.06;4929236;29;20035;-80
2023/05/06 01:51:55;;;;;;;;;;;;;;;10.34;91.10;101530.41;4932268;29;19979;-81
2023/05/06 01:54:22;;;;;;;;;;;;;;;10.22;91.29;101526.06;4931699;29;19919;-81
2023/05/06 01:56:47;;;;;;;;;;;;;;;10.26;90.98;101538.41;4931130;28;19971;-81
2023/05/06 01:59:13;;;;;;;;;;;;;;;10.23;91.11;101535.75;4921179;29;19920;-81
2023/05/06 02:01:39;;;;;;;;;;;;;;;10.20;90.90;101543.72;4915569;29;19937;-81
2023/05/06 02:04:05;;;;;;;;;;;;;;;10.17;91.07;101549.06;4931577;29;19915;-81
2023/05/06 02:06:31;;;;;;;;;;;;;;;10.21;91.29;101547.25;4915551;29;19926;-81
2023/05/06 02:08:56;;;;;;;;;;;;;;;10.18;91.19;101552.56;4911015;29;20002;-81
2023/05/06 02:11:23;;;;;;;;;;;;;;;10.15;91.19;101550.84;4909083;29;19911;-81
2023/05/06 02:13:51;;;;;;;;;;;;;;;10.14;92.32;101554.38;4882260;29;20324;-81
2023/05/06 02:16:17;;;;;;;;;;;;;;;10.12;92.75;101554.38;4923447;29;19915;-81
2023/05/06 02:18:42;;;;;;;;;;;;;;;10.11;93.25;101550.00;4899493;29;19923;-81
2023/05/06 02:21:08;;;;;;;;;;;;;;;10.11;93.03;101555.28;4921402;29;19938;-81
2023/05/06 02:23:35;;;;;;;;;;;;;;;10.13;92.97;101556.13;4916632;29;20009;-81
2023/05/06 02:26:00;;;;;;;;;;;;;;;10.13;93.05;101545.53;4896366;29;20404;-80
2023/05/06 02:28:25;;;;;;;;;;;;;;;10.15;93.31;101557.91;4921147;29;19935;-81
2023/05/06 02:30:55;;;;;;;;;;;;;;;10.13;93.76;101552.63;4930509;29;19911;-81
2023/05/06 02:33:20;;;;;;;;;;;;;;;10.13;93.31;101549.97;4897409;29;20389;-81
2023/05/06 02:35:46;;;;;;;;;;;;;;;10.10;93.43;101550.00;4897852;29;19951;-81
2023/05/06 02:38:11;;;;;;;;;;;;;;;10.07;93.45;101550.91;4905591;29;19929;-81
2023/05/06 02:40:36;;;;;;;;;;;;;;;10.05;94.14;101542.09;4891893;29;19923;-81
2023/05/06 02:43:02;;;;;;;;;;;;;;;10.03;93.96;101543.00;4899445;29;19970;-82
2023/05/06 02:45:27;;;;;;;;;;;;;;;9.99;94.96;101544.81;4912155;29;19983;-81
2023/05/06 02:47:52;;;;;;;;;;;;;;;9.99;95.20;101544.81;4897441;29;19927;-81
2023/05/06 02:50:18;;;;;;;;;;;;;;;9.96;94.15;101539.50;4896172;29;19915;-81
2023/05/06 02:52:43;;;;;;;;;;;;;;;9.96;94.18;101543.94;4917359;29;19970;-81
2023/05/06 02:55:09;;;;;;;;;;;;;;;9.92;93.79;101536.94;4905721;29;19915;-81
2023/05/06 02:57:34;;;;;;;;;;;;;;;9.92;94.17;101545.75;4908602;29;19924;-81
2023/05/06 03:00:00;;;;;;;;;;;;;;;9.92;93.45;101547.53;4887601;29;19923;-81
2023/05/06 03:02:25;;;;;;;;;;;;;;;9.89;93.02;101548.38;4896300;29;19923;-81
2023/05/06 03:04:50;;;;;;;;;;;;;;;9.84;93.46;101540.50;4897314;29;19919;-81
2023/05/06 03:07:16;;;;;;;;;;;;;;;9.81;94.42;101539.66;4912184;29;19963;-81
2023/05/06 03:09:42;;;;;;;;;;;;;;;9.77;92.83;101538.81;4895953;29;20363;-81
2023/05/06 03:12:09;;;;;;;;;;;;;;;9.72;94.89;101532.66;4922828;29;19923;-81
2023/05/06 03:14:34;;;;;;;;;;;;;;;9.68;94.15;101534.44;4900317;29;19911;-81
2023/05/06 03:16:59;;;;;;;;;;;;;;;9.65;94.07;101541.53;4911376;29;20290;-81
2023/05/06 03:19:25;;;;;;;;;;;;;;;9.61;94.04;101537.16;4906471;29;19911;-81
2023/05/06 03:21:50;;;;;;;;;;;;;;;9.59;94.25;101536.28;4914782;29;19926;-82
2023/05/06 03:24:17;;;;;;;;;;;;;;;9.59;93.80;101536.28;4889078;29;20002;-81
2023/05/06 03:26:43;;;;;;;;;;;;;;;9.56;93.93;101539.81;4910527;29;20101;-79
2023/05/06 03:29:11;;;;;;;;;;;;;;;9.54;93.74;101538.94;4924402;29;19919;-79
2023/05/06 03:31:37;;;;;;;;;;;;;;;9.48;93.26;101525.78;4895623;29;19919;-78
2023/05/06 03:34:02;;;;;;;;;;;;;;;9.44;92.72;101529.31;4924789;29;19970;-79
2023/05/06 03:36:28;;;;;;;;;;;;;;;9.43;93.63;101532.84;4918715;29;19970;-79
2023/05/06 03:38:54;;;;;;;;;;;;;;;9.41;93.62;101532.84;4916374;29;19918;-79
2023/05/06 03:41:20;;;;;;;;;;;;;;;9.39;93.35;101529.34;4919302;29;20275;-79
2023/05/06 03:43:46;;;;;;;;;;;;;;;9.37;93.55;101530.22;4934581;29;19915;-78
2023/05/06 03:46:13;;;;;;;;;;;;;;;9.34;93.61;101532.91;4939489;29;19919;-78
2023/05/06 03:48:38;;;;;;;;;;;;;;;9.30;93.36;101526.78;4928238;29;19933;-78
2023/05/06 03:51:07;;;;;;;;;;;;;;;9.28;93.51;101532.94;4916920;29;19919;-78
2023/05/06 03:53:33;;;;;;;;;;;;;;;9.26;93.25;101528.53;4915913;29;19938;-79
2023/05/06 03:56:00;;;;;;;;;;;;;;;9.23;93.48;101532.97;4922167;29;20014;-79
2023/05/06 03:58:26;;;;;;;;;;;;;;;9.19;93.33;101533.88;4917671;29;19926;-79
2023/05/06 04:00:52;;;;;;;;;;;;;;;9.15;93.39;101538.31;4915452;29;19919;-79
2023/05/06 04:03:17;;;;;;;;;;;;;;;9.13;93.61;101534.78;4914623;29;20371;-79
2023/05/06 04:05:47;;;;;;;;;;;;;;;9.14;94.00;101535.66;4903574;29;20370;-80
2023/05/06 04:08:16;;;;;;;;;;;;;;;9.13;93.64;101534.78;4917487;29;19919;-80
2023/05/06 04:10:42;;;;;;;;;;;;;;;9.14;94.38;101540.94;4902491;29;19911;-79
2023/05/06 04:13:16;;;;;;;;;;;;;;;9.15;94.06;101543.59;4914371;29;19975;-79
2023/05/06 04:15:43;;;;;;;;;;;;;;;9.16;94.67;101540.03;4885274;29;20010;-79
2023/05/06 04:18:17;;;;;;;;;;;;;;;9.16;95.05;101536.53;4921404;29;20009;-79
2023/05/06 04:20:46;;;;;;;;;;;;;;;9.15;94.76;101543.59;4913962;29;19923;-79
2023/05/06 04:23:13;;;;;;;;;;;;;;;9.14;94.62;101540.94;4908041;29;19967;-79
2023/05/06 04:25:41;;;;;;;;;;;;;;;9.14;94.79;101551.50;4904058;29;19963;-79
2023/05/06 04:28:13;;;;;;;;;;;;;;;9.15;95.04;101554.16;4910974;29;20283;-79
2023/05/06 04:30:38;;;;;;;;;;;;;;;9.18;94.74;101545.34;4902645;29;19924;-79
2023/05/06 04:33:04;;;;;;;;;;;;;;;9.21;94.67;101555.88;4910533;29;20287;-79
2023/05/06 04:35:30;;;;;;;;;;;;;;;9.23;94.90;101552.34;4922734;29;20240;-79
2023/05/06 04:37:56;;;;;;;;;;;;;;;9.26;95.15;101562.91;4917899;29;19915;-79
2023/05/06 04:40:26;;;;;;;;;;;;;;;9.31;95.30;101556.72;4913471;29;19939;-79
2023/05/06 04:42:52;;;;;;;;;;;;;;;9.34;95.34;101561.97;4900558;29;20006;-80
2023/05/06 04:45:23;;;;;;;;;;;;;;;9.39;95.36;101562.81;4920217;29;19919;-79
2023/05/06 04:47:51;;;;;;;;;;;;;;;9.45;95.33;101563.69;4932802;28;19958;-78
2023/05/06 04:50:17;;;;;;;;;;;;;;;9.51;95.11;101559.25;4886318;29;19970;-79
2023/05/06 04:52:43;;;;;;;;;;;;;;;9.56;95.28;101563.63;4898064;29;20268;-79
2023/05/06 04:55:10;;;;;;;;;;;;;;;9.63;95.73;101569.75;4913489;29;19915;-79
2023/05/06 04:57:36;;;;;;;;;;;;;;;9.71;95.31;101567.94;4932202;29;19974;-79
2023/05/06 05:00:03;;;;;;;;;;;;;;;9.79;95.32;101573.16;4905178;29;20033;-79
2023/05/06 05:02:28;;;;;;;;;;;;;;;9.89;95.66;101569.56;4927109;29;19947;-79
2023/05/06 05:04:54;;;;;;;;;;;;;;;9.99;96.11;101570.38;4913613;29;19912;-79
2023/05/06 05:07:21;;;;;;;;;;;;;;;10.11;98.98;101575.56;4912753;29;19923;-79
2023/05/06 05:09:46;;;;;;;;;;;;;;;10.18;98.93;101564.03;4908479;29;19918;-79
2023/05/06 05:12:12;;;;;;;;;;;;;;;10.23;97.93;101577.22;4913495;29;19923;-79
2023/05/06 05:14:41;;;;;;;;;;;;;;;10.30;96.34;101576.31;4907141;29;19916;-79
2023/05/06 05:17:08;;;;;;;;;;;;;;;10.40;99.45;101582.41;4918723;29;19919;-79
2023/05/06 05:19:35;;;;;;;;;;;;;;;10.45;98.93;101584.13;4911644;29;19928;-79
2023/05/06 05:22:01;;;;;;;;;;;;;;;10.51;97.98;101583.22;4923483;29;19915;-79
2023/05/06 05:24:26;;;;;;;;;;;;;;;10.55;97.34;101580.50;4928849;29;19933;-79
2023/05/06 05:26:52;;;;;;;;;;;;;;;10.61;97.30;101584.88;4913164;29;19967;-79
2023/05/06 05:29:17;;;;;;;;;;;;;;;10.69;96.04;101588.31;4910463;29;19923;-79
2023/05/06 05:31:44;;;;;;;;;;;;;;;10.76;97.81;101582.06;4908104;29;19919;-79
2023/05/06 05:34:11;;;;;;;;;;;;;;;10.80;93.55;101595.25;4925161;29;20375;-79
2023/05/06 05:36:36;;;;;;;;;;;;;;;10.87;92.70;101591.66;4911156;29;19915;-79
2023/05/06 05:39:05;;;;;;;;;;;;;;;10.90;94.05;101588.97;4886473;29;19924;-79
2023/05/06 05:41:33;;;;;;;;;;;;;;;10.94;95.22;101598.63;4906742;29;19972;-79
2023/05/06 05:44:01;;;;;;;;;;;;;;;10.96;95.64;101602.16;4912057;29;19915;-79
2023/05/06 05:46:28;;;;;;;;;;;;;;;10.96;94.89;101604.81;4886387;29;20010;-79
2023/05/06 05:48:55;;;;;;;;;;;;;;;10.99;95.96;101604.75;4915783;29;20222;-79
2023/05/06 05:51:22;;;;;;;;;;;;;;;11.07;95.81;101609.97;4912218;29;20375;-79
2023/05/06 05:53:48;;;;;;;;;;;;;;;11.13;94.90;101604.63;4911434;29;19916;-79
2023/05/06 05:56:15;;;;;;;;;;;;;;;11.19;91.62;101609.81;4903991;29;20327;-78
2023/05/06 05:58:40;;;;;;;;;;;;;;;11.27;93.79;101607.94;4905592;29;19963;-79
2023/05/06 06:01:06;;;;;;;;;;;;;;;11.36;96.02;101610.50;4899845;29;20067;-79
2023/05/06 06:03:32;;;;;;;;;;;;;;;11.44;94.25;101605.09;4904828;29;20271;-79
2023/05/06 06:05:57;;;;;;;;;;;;;;;11.53;95.37;101612.06;4892231;29;19920;-79
2023/05/06 06:08:25;;;;;;;;;;;;;;;11.60;95.91;101604.00;4899266;29;19919;-79
2023/05/06 06:10:51;;;;;;;;;;;;;;;11.66;95.77;101603.03;4896866;29;19919;-79
2023/05/06 06:13:20;;;;;;;;;;;;;;;11.72;96.78;101607.34;4889700;29;19966;-79
2023/05/06 06:15:46;;;;;;;;;;;;;;;11.75;92.21;101607.34;4883129;29;20093;-79
2023/05/06 06:18:11;;;;;;;;;;;;;;;11.77;94.49;101603.75;4903535;29;20290;-79
2023/05/06 06:20:40;;;;;;;;;;;;;;;11.81;95.32;101593.97;4883863;29;20290;-79
2023/05/06 06:23:05;;;;;;;;;;;;;;;11.84;94.72;101602.78;4897485;29;19954;-79
2023/05/06 06:25:31;;;;;;;;;;;;;;;11.89;97.23;101593.88;4896161;29;19966;-78
2023/05/06 06:27:56;;;;;;;;;;;;;;;11.91;95.39;101600.03;4901029;29;19923;-79
2023/05/06 06:30:22;;;;;;;;;;;;;;;11.95;91.21;101609.72;4889985;29;20367;-79
2023/05/06 06:32:51;;;;;;;;;;;;;;;12.02;93.84;101600.78;4894320;29;19922;-79
2023/05/06 06:35:18;;;;;;;;;;;;;;;12.11;95.06;101597.06;4904723;29;19915;-79
2023/05/06 06:37:44;;;;;;;;;;;;;;;12.13;92.21;101590.84;4891838;29;19911;-79
2023/05/06 06:40:10;;;;;;;;;;;;;;;12.20;93.92;101616.38;4897958;29;19915;-79
2023/05/06 06:42:35;;;;;;;;;;;;;;;12.25;95.66;101611.88;4897781;29;20271;-79
2023/05/06 06:45:26;;;;;;;;;;;;;;;12.33;91.44;101617.06;4904753;29;19915;-79
2023/05/06 06:47:52;;;;;;;;;;;;;;;12.44;92.49;101614.25;4887220;29;19928;-79
2023/05/06 06:50:17;;;;;;;;;;;;;;;12.54;93.30;101610.53;4885459;29;19978;-78
2023/05/06 06:52:43;;;;;;;;;;;;;;;12.66;96.21;101609.41;4907832;29;20345;-79
2023/05/06 06:55:08;;;;;;;;;;;;;;;12.78;94.64;101613.63;4895820;29;20022;-78
2023/05/06 06:57:34;;;;;;;;;;;;;;;12.89;96.27;101617.84;4921206;29;20345;-78
2023/05/06 07:00:00;;;;;;;;;;;;;;;12.98;98.20;101611.47;4903647;29;19937;-79
2023/05/06 07:02:25;;;;;;;;;;;;;;;13.08;95.39;101614.81;4897855;29;20379;-78
2023/05/06 07:04:51;;;;;;;;;;;;;;;13.22;95.85;101611.88;4898812;29;19934;-78
2023/05/06 07:07:16;;;;;;;;;;;;;;;13.35;95.04;101610.72;4898046;29;19923;-78
2023/05/06 07:09:43;;;;;;;;;;;;;;;13.50;95.15;101609.53;4895776;29;19920;-78
2023/05/06 07:12:08;;;;;;;;;;;;;;;13.63;93.77;101616.34;4897236;29;20006;-78
2023/05/06 07:14:33;;;;;;;;;;;;;;;13.70;92.43;101611.78;4929973;29;20290;-79
2023/05/06 07:17:02;;;;;;;;;;;;;;;13.78;90.47;101617.81;4904179;29;19954;-79
2023/05/06 07:19:28;;;;;;;;;;;;;;;13.93;93.91;101622.75;4905629;29;19958;-79
2023/05/06 07:21:53;;;;;;;;;;;;;;;14.05;89.66;101624.28;4906634;29;20349;-79
2023/05/06 07:24:18;;;;;;;;;;;;;;;14.17;89.68;101618.66;4899873;29;19927;-79
2023/05/06 07:26:44;;;;;;;;;;;;;;;14.22;90.89;101625.63;4911701;29;19911;-80
2023/05/06 07:29:09;;;;;;;;;;;;;;;14.28;91.25;101629.03;4897352;29;19915;-79
2023/05/06 07:31:35;;;;;;;;;;;;;;;14.40;92.22;101628.72;4898672;29;19954;-79
2023/05/06 07:34:00;;;;;;;;;;;;;;;14.53;93.04;101623.09;4897166;29;19915;-80
2023/05/06 07:36:26;;;;;;;;;;;;;;;14.66;92.81;101629.00;4897282;29;20476;-80
2023/05/06 07:38:52;;;;;;;;;;;;;;;14.78;92.02;101623.34;4897179;29;19927;-81
2023/05/06 07:41:17;;;;;;;;;;;;;;;14.85;90.27;101624.94;4910379;29;19915;-81
2023/05/06 07:43:43;;;;;;;;;;;;;;;14.89;88.46;101629.28;4911752;29;19963;-81
2023/05/06 07:46:08;;;;;;;;;;;;;;;14.89;90.14;101628.41;4909775;29;20343;-81
2023/05/06 07:48:33;;;;;;;;;;;;;;;14.95;89.93;101629.09;4896515;29;20394;-81
2023/05/06 07:50:59;;;;;;;;;;;;;;;15.03;90.89;101621.78;4897099;29;19937;-81
2023/05/06 07:53:25;;;;;;;;;;;;;;;15.11;90.73;101624.22;4909836;29;19919;-81
2023/05/06 07:55:51;;;;;;;;;;;;;;;15.20;90.89;101631.06;4912058;28;20362;-81
2023/05/06 07:58:17;;;;;;;;;;;;;;;15.24;90.07;101628.28;4911447;29;19919;-81
2023/05/06 08:00:43;;;;;;;;;;;;;;;15.31;89.58;101630.78;4928406;29;20263;-81
2023/05/06 08:03:08;;;;;;;;;;;;;;;15.38;88.40;101635.91;4906081;29;20018;-81
2023/05/06 08:05:36;;;;;;;;;;;;;;;15.48;89.78;101633.84;4896982;29;19951;-81
2023/05/06 08:08:01;;;;;;;;;;;;;;;15.58;89.75;101634.41;4897320;29;19974;-81
2023/05/06 08:10:26;;;;;;;;;;;;;;;15.64;87.70;101636.91;4912105;29;19922;-82
2023/05/06 08:12:52;;;;;;;;;;;;;;;15.69;87.88;101629.63;4899674;29;19919;-82
2023/05/06 08:15:17;;;;;;;;;;;;;;;15.78;87.56;101639.19;4911155;29;19911;-84
2023/05/06 08:17:42;;;;;;;;;;;;;;;15.86;86.46;101640.69;4916710;29;19977;-84
2023/05/06 08:20:08;;;;;;;;;;;;;;;15.97;85.25;101644.81;4923224;29;19938;-84
2023/05/06 08:22:34;;;;;;;;;;;;;;;16.09;87.06;101634.63;4919412;29;19929;-84
2023/05/06 08:24:59;;;;;;;;;;;;;;;16.21;85.54;101632.47;4904360;29;20284;-84
2023/05/06 08:27:25;;;;;;;;;;;;;;;16.34;85.02;101636.47;4919020;29;20009;-83
2023/05/06 08:29:50;;;;;;;;;;;;;;;16.44;85.57;101635.25;4905776;29;19915;-83
2023/05/06 08:32:16;;;;;;;;;;;;;;;16.52;84.70;101629.66;4921604;29;20487;-82
2023/05/06 08:34:41;;;;;;;;;;;;;;;16.60;84.33;101626.72;4919036;29;19919;-81
2023/05/06 08:37:07;;;;;;;;;;;;;;;16.70;85.31;101637.03;4918768;29;19966;-81
2023/05/06 08:39:32;;;;;;;;;;;;;;;16.82;84.63;101632.25;4904541;29;19911;-83
2023/05/06 08:42:00;;;;;;;;;;;;;;;16.90;83.88;101635.50;4933112;29;19954;-83
2023/05/06 08:44:25;;;;;;;;;;;;;;;16.90;82.95;101624.81;4905090;29;19911;-83
2023/05/06 08:46:51;;;;;;;;;;;;;;;16.90;82.18;101624.81;4917174;29;19979;-83
2023/05/06 08:49:16;;;;;;;;;;;;;;;16.97;83.23;101619.19;4904818;29;20382;-83
2023/05/06 08:51:43;;;;;;;;;;;;;;;17.13;82.00;101621.28;4905951;29;19929;-83
2023/05/06 08:54:09;;;;;;;;;;;;;;;17.26;81.88;101621.69;4912529;29;19911;-83
2023/05/06 08:56:35;;;;;;;;;;;;;;;17.41;81.92;101622.00;4910096;29;20303;-83
2023/05/06 08:59:01;;;;;;;;;;;;;;;17.55;79.69;101617.94;4913424;29;20406;-83
2023/05/06 09:01:27;;;;;;;;;;;;;;;17.66;79.51;101615.72;4905255;29;19920;-83
2023/05/06 09:03:56;;;;;;;;;;;;;;;17.76;79.79;101614.41;4895082;29;19999;-83
2023/05/06 09:06:23;;;;;;;;;;;;;;;17.91;78.45;101607.59;4899205;29;20022;-83
2023/05/06 09:08:48;;;;;;;;;;;;;;;18.07;78.26;101606.97;4899990;29;19915;-83
2023/05/06 09:11:28;;;;;;;;;;;;;;;18.20;78.34;101603.75;4917918;29;19915;-83
2023/05/06 09:14:09;;;;;;;;;;;;;;;18.37;77.72;101604.81;4905036;29;19923;-83
2023/05/06 09:16:34;;;;;;;;;;;;;;;18.53;76.66;101600.56;4887562;29;20018;-80
2023/05/06 09:19:00;;;;;;;;;;;;;;;18.60;74.86;101599.34;4909505;29;19946;-81
2023/05/06 09:21:32;;;;;;;;;;;;;;;18.71;75.47;101604.25;4911008;29;19919;-81
2023/05/06 09:23:59;;;;;;;;;;;;;;;18.81;75.29;101602.94;4885666;29;19971;-81
2023/05/06 09:26:25;;;;;;;;;;;;;;;18.99;74.77;101597.69;4899852;29;19943;-81
2023/05/06 09:28:51;;;;;;;;;;;;;;;19.18;73.83;101601.28;4903826;29;20380;-81
2023/05/06 09:31:16;;;;;;;;;;;;;;;19.30;73.13;101597.16;4920470;29;19931;-81
2023/05/06 09:33:41;;;;;;;;;;;;;;;19.36;69.71;101604.06;4899089;29;19915;-81
2023/05/06 09:36:09;;;;;;;;;;;;;;;19.47;72.90;101599.94;4899952;29;19923;-82
2023/05/06 09:38:34;;;;;;;;;;;;;;;19.50;67.03;101593.53;4912736;29;20014;-82
2023/05/06 09:41:02;;;;;;;;;;;;;;;19.44;66.14;101605.47;4924839;29;19974;-82
2023/05/06 09:43:28;;;;;;;;;;;;;;;19.38;66.63;101608.41;4898679;29;19977;-82
2023/05/06 09:45:53;;;;;;;;;;;;;;;19.32;68.49;101600.66;4912710;29;20359;-82
2023/05/06 09:48:19;;;;;;;;;;;;;;;19.26;65.35;101593.75;4899742;29;19995;-82
2023/05/06 09:50:44;;;;;;;;;;;;;;;19.26;65.31;101596.44;4902184;29;19915;-82
2023/05/06 09:53:11;;;;;;;;;;;;;;;19.32;67.22;101595.28;4912667;29;19950;-82
2023/05/06 09:55:36;;;;;;;;;;;;;;;19.47;67.27;101594.56;4912238;29;20023;-82
2023/05/06 09:58:03;;;;;;;;;;;;;;;19.59;63.98;101594.94;4896919;29;19959;-82
2023/05/06 10:00:30;;;;;;;;;;;;;;;19.74;67.44;101592.41;4900150;29;20026;-82
2023/05/06 10:02:55;;;;;;;;;;;;;;;19.86;67.18;101587.41;4909874;29;20279;-82
2023/05/06 10:05:21;;;;;;;;;;;;;;;19.99;65.24;101585.84;4925267;29;19934;-81
2023/05/06 10:07:47;;;;;;;;;;;;;;;20.23;66.57;101588.22;4916635;29;19915;-82
2023/05/06 10:10:13;;;;;;;;;;;;;;;20.41;66.00;101585.47;4905926;29;19919;-82
2023/05/06 10:12:38;;;;;;;;;;;;;;;20.57;65.98;101576.66;4925813;29;20007;-83
2023/05/06 10:15:04;;;;;;;;;;;;;;;20.69;65.06;101584.06;4897942;29;20246;-82
2023/05/06 10:17:30;;;;;;;;;;;;;;;20.78;64.36;101580.03;4899049;29;20292;-82
2023/05/06 10:19:57;;;;;;;;;;;;;;;20.86;59.83;101568.88;4913791;29;19946;-82
2023/05/06 10:22:25;;;;;;;;;;;;;;;20.89;59.98;101566.88;4902505;29;20355;-82
2023/05/06 10:24:57;;;;;;;;;;;;;;;20.79;58.02;101558.41;4917566;29;19974;-82
2023/05/06 10:27:25;;;;;;;;;;;;;;;20.76;59.38;101563.97;4910274;29;19951;-83
2023/05/06 10:29:57;;;;;;;;;;;;;;;20.85;59.19;101564.44;4898204;29;19925;-82
2023/05/06 10:32:25;;;;;;;;;;;;;;;20.95;60.35;101561.16;4898837;29;19970;-82
2023/05/06 10:34:55;;;;;;;;;;;;;;;20.98;57.35;101570.91;4900115;29;19911;-82
2023/05/06 10:37:25;;;;;;;;;;;;;;;20.79;59.99;101569.19;4904738;29;19922;-82
2023/05/06 10:39:54;;;;;;;;;;;;;;;20.96;61.30;101557.50;4928118;29;20366;-81
2023/05/06 10:42:19;;;;;;;;;;;;;;;21.24;58.90;101556.88;4906981;29;19931;-82
2023/05/06 10:44:57;;;;;;;;;;;;;;;21.53;59.98;101549.00;4912357;29;19927;-82
2023/05/06 10:47:22;;;;;;;;;;;;;;;21.74;51.84;101549.63;4921499;29;19945;-82
2023/05/06 10:50:06;;;;;;;;;;;;;;;21.82;56.05;101543.78;4916923;29;20355;-81
2023/05/06 10:52:44;;;;;;;;;;;;;;;22.02;56.43;101539.94;4899584;29;20002;-82
2023/05/06 10:55:26;;;;;;;;;;;;;;;22.28;56.50;101536.59;4925230;29;19931;-81
2023/05/06 10:57:56;;;;;;;;;;;;;;;22.50;56.83;101540.66;4898462;29;19924;-82
2023/05/06 11:00:22;;;;;;;;;;;;;;;22.46;57.94;101536.44;4882961;29;20383;-82
2023/05/06 11:02:54;;;;;;;;;;;;;;;22.33;56.08;101539.03;4896094;29;19959;-82
2023/05/06 11:05:20;;;;;;;;;;;;;;;22.19;57.07;101547.03;4879700;29;19930;-82
2023/05/06 11:07:48;;;;;;;;;;;;;;;21.89;52.47;101540.66;4897377;29;19938;-82
2023/05/06 11:10:14;;;;;;;;;;;;;;;21.69;53.64;101543.63;4897041;29;19923;-83
2023/05/06 11:12:50;;;;;;;;;;;;;;;21.45;51.96;101544.06;4893448;29;20363;-82
2023/05/06 11:15:26;;;;;;;;;;;;;;;21.41;55.15;101536.25;4879847;29;20013;-82
2023/05/06 11:17:53;;;;;;;;;;;;;;;21.30;53.22;101534.13;4896867;29;19979;-82
2023/05/06 11:20:18;;;;;;;;;;;;;;;21.37;55.32;101538.22;4904211;29;19915;-82
2023/05/06 11:22:44;;;;;;;;;;;;;;;21.44;56.94;101534.25;4900013;29;19938;-83
2023/05/06 11:25:09;;;;;;;;;;;;;;;21.46;54.49;101536.84;4895135;29;19925;-83
2023/05/06 11:27:35;;;;;;;;;;;;;;;21.45;53.93;101532.44;4897056;29;19916;-82
2023/05/06 11:30:00;;;;;;;;;;;;;;;21.29;51.79;101528.81;4909417;29;19930;-82
2023/05/06 11:32:27;;;;;;;;;;;;;;;21.17;53.40;101528.56;4894819;29;19941;-82
2023/05/06 11:34:53;;;;;;;;;;;;;;;21.28;53.33;101536.03;4914106;29;19933;-82
2023/05/06 11:37:28;;;;;;;;;;;;;;;21.18;54.16;101524.91;4905696;29;20320;-82
2023/05/06 11:39:54;;;;;;;;;;;;;;;21.13;54.45;101521.59;4896441;29;19919;-82
2023/05/06 11:42:26;;;;;;;;;;;;;;;21.21;51.63;101526.53;4915781;29;19911;-82
2023/05/06 11:44:54;;;;;;;;;;;;;;;21.26;53.47;101522.66;4900992;29;19931;-82
2023/05/06 11:47:21;;;;;;;;;;;;;;;21.52;50.84;101522.19;4875046;29;19923;-82
2023/05/06 11:49:49;;;;;;;;;;;;;;;21.73;50.53;101525.44;4896649;29;19923;-82
2023/05/06 11:52:17;;;;;;;;;;;;;;;21.71;52.78;101527.34;4902334;29;19966;-82
2023/05/06 11:54:42;;;;;;;;;;;;;;;22.00;52.94;101522.97;4909812;29;19930;-82
2023/05/06 11:57:08;;;;;;;;;;;;;;;22.22;50.90;101526.16;4917022;29;19923;-81
2023/05/06 11:59:36;;;;;;;;;;;;;;;22.26;51.97;101527.72;4900307;29;19938;-82
2023/05/06 12:02:02;;;;;;;;;;;;;;;22.22;50.95;101528.00;4900349;29;19915;-81
2023/05/06 12:04:35;;;;;;;;;;;;;;;22.06;52.13;101528.00;4901281;29;19983;-81
2023/05/06 12:07:01;;;;;;;;;;;;;;;22.03;53.43;101525.47;4904968;29;19915;-82
2023/05/06 12:09:26;;;;;;;;;;;;;;;22.06;51.44;101526.19;4902035;29;19916;-81
2023/05/06 12:11:52;;;;;;;;;;;;;;;22.11;49.98;101524.06;4900700;29;20467;-81
2023/05/06 12:14:17;;;;;;;;;;;;;;;22.20;52.66;101522.69;4901479;29;19915;-81
2023/05/06 12:16:43;;;;;;;;;;;;;;;22.46;51.69;101522.94;4898869;29;19924;-81
2023/05/06 12:19:09;;;;;;;;;;;;;;;22.64;52.94;101521.81;4897028;29;19922;-82
2023/05/06 12:21:37;;;;;;;;;;;;;;;22.86;51.00;101521.34;4900070;29;19989;-82
2023/05/06 12:24:03;;;;;;;;;;;;;;;22.90;47.54;101513.94;4912028;29;19919;-81
2023/05/06 12:26:40;;;;;;;;;;;;;;;22.91;47.57;101516.50;4883247;29;19920;-82
2023/05/06 12:29:06;;;;;;;;;;;;;;;22.89;48.14;101522.97;4911786;29;20013;-82
2023/05/06 12:31:32;;;;;;;;;;;;;;;22.82;50.90;101519.78;4898586;29;20697;-82
2023/05/06 12:33:57;;;;;;;;;;;;;;;22.86;45.27;101520.47;4882609;29;19951;-82
2023/05/06 12:36:23;;;;;;;;;;;;;;;22.93;45.93;101519.13;4900754;29;19915;-82